Time;durP1;ratioP1;P1;durP2;ratioP2;P2;SDS_P1;SDS_P2;PMS_P1;PMS_P2;Temp;Humidity;BMP_temperature;BMP_pressure;BME280_temperature;BME280_humidity;BME280_pressure;Samples;Min_cycle;Max_cycle;Signal;HPM_P1;HPM_P2
2022/12/22 03:26:58;;;;;;;;;;;;;;;;;;4921145;28;19929;-63
2022/12/22 03:29:26;;;;;;;;;;;;;;;;;;4921263;28;19993;-63
2022/12/22 03:31:52;;;;;;;;;;;;;;;;;;4917237;28;20247;-64
2022/12/22 03:34:17;;;;;;;;;;;;;;;;;;4923675;28;19976;-63
2022/12/22 03:36:45;;;;;;;;;;;;;;;;;;4918661;28;19930;-63
2022/12/22 03:39:10;;;;;;;;;;;;;;;;;;4923900;28;20021;-63
2022/12/22 03:47:11;;;;;;;;;;;;;;;;;;4925764;28;20330;-63
2022/12/22 03:49:36;;;;;;;;;;;;;;;;;;4977248;28;20478;-63
2022/12/22 03:52:04;;;;;;;;;;;;;;;;;;4925433;28;19954;-63
2022/12/22 03:54:31;;;;;;;;;;;;;;;;;;4924417;28;20488;-63
2022/12/22 03:56:56;;;;;;;;;;;;;;;;;;4991775;28;19927;-65
2022/12/22 03:59:25;;;;;;;;;;;;;;;;;;4979288;28;20353;-65
2022/12/22 04:01:53;;;;;;;;;;;;;;;;;;4924509;28;20062;-63
2022/12/22 04:04:18;;;;;;;;;;;;;;;;;;4917875;28;19923;-63
2022/12/22 04:06:46;;;;;;;;;;;;;;;;;;4990997;28;19922;-63
2022/12/22 04:09:13;;;;;;;;;;;;;;;;;;4923907;28;20274;-64
2022/12/22 04:14:25;;;;;;;;;;;;;;;;;;4924811;28;19988;-64
2022/12/22 04:16:53;;;;;;;;;;;;;;;;;;4925318;28;19923;-64
2022/12/22 04:19:23;;;;;;;;;;;;;;;;;;4924486;28;19930;-64
2022/12/22 04:21:53;;;;;;;;;;;;;;;;;;4924087;28;19918;-64
2022/12/22 04:24:21;;;;;;;;;;;;;;;;;;4988229;28;21336;-63
2022/12/22 04:26:46;;;;;;;;;;;;;;;;;;4924729;28;19926;-64
2022/12/22 04:29:11;;;;;;;;;;;;;;;;;;4923705;28;19927;-64
2022/12/22 04:31:36;;;;;;;;;;;;;;;;;;4911437;28;19926;-64
2022/12/22 04:34:04;;;;;;;;;;;;;;;;;;4925606;28;19927;-64
2022/12/22 04:36:30;;;;;;;;;;;;;;;;;;4924904;28;19926;-64
2022/12/22 04:38:55;;;;;;;;;;;;;;;;;;4923906;28;19918;-64
2022/12/22 04:41:20;;;;;;;;;;;;;;;;;;4923571;28;19929;-64
2022/12/22 04:43:48;;;;;;;;;;;;;;;;;;4923843;28;19934;-64
2022/12/22 04:49:01;;;;;;;;;;;;;;;;;;4926314;28;19938;-64
2022/12/22 04:51:27;;;;;;;;;;;;;;;;;;4911203;28;19992;-65
2022/12/22 04:53:54;;;;;;;;;;;;;;;;;;4918238;28;19925;-65
2022/12/22 04:56:20;;;;;;;;;;;;;;;;;;4990070;28;19931;-65
2022/12/22 04:58:47;;;;;;;;;;;;;;;;;;4924881;28;20150;-64
2022/12/22 05:01:15;;;;;;;;;;;;;;;;;;4911452;28;19919;-64
2022/12/22 05:03:41;;;;;;;;;;;;;;;;;;4978072;28;19994;-65
2022/12/22 05:06:06;;;;;;;;;;;;;;;;;;4924393;28;20460;-65
2022/12/22 05:08:32;;;;;;;;;;;;;;;;;;4921951;28;20009;-65
2022/12/22 05:11:01;;;;;;;;;;;;;;;;;;4924195;28;19977;-65
2022/12/22 05:13:31;;;;;;;;;;;;;;;;;;4972519;28;19929;-65
2022/12/22 05:15:59;;;;;;;;;;;;;;;;;;4988658;28;19934;-65
2022/12/22 05:18:24;;;;;;;;;;;;;;;;;;4974316;28;19976;-65
2022/12/22 05:20:49;;;;;;;;;;;;;;;;;;4920360;28;20009;-65
2022/12/22 05:23:17;;;;;;;;;;;;;;;;;;4972749;28;20909;-63
2022/12/22 05:25:45;;;;;;;;;;;;;;;;;;4923297;28;20369;-64
2022/12/22 05:28:13;;;;;;;;;;;;;;;;;;4923696;28;20695;-64
2022/12/22 05:30:38;;;;;;;;;;;;;;;;;;4923399;28;19923;-65
2022/12/22 05:33:04;;;;;;;;;;;;;;;;;;4924582;28;20563;-65
2022/12/22 05:35:32;;;;;;;;;;;;;;;;;;4922457;28;21798;-65
2022/12/22 05:38:00;;;;;;;;;;;;;;;;;;4924030;28;19922;-65
2022/12/22 05:46:58;;;;;;;;;;;;;;;;;;4924215;28;20559;-64
2022/12/22 05:49:26;;;;;;;;;;;;;;;;;;4923819;28;19923;-64
2022/12/22 05:51:53;;;;;;;;;;;;;;;;;;4923395;28;19984;-64
2022/12/22 05:54:22;;;;;;;;;;;;;;;;;;4924955;28;19919;-64
2022/12/22 05:56:48;;;;;;;;;;;;;;;;;;4921401;28;19926;-65
2022/12/22 05:59:15;;;;;;;;;;;;;;;;;;4922198;28;20375;-64
2022/12/22 06:01:43;;;;;;;;;;;;;;;;;;4923464;28;20443;-65
2022/12/22 06:04:08;;;;;;;;;;;;;;;;;;4906656;28;20013;-65
2022/12/22 06:06:34;;;;;;;;;;;;;;;;;;4923380;28;19923;-65
2022/12/22 06:09:01;;;;;;;;;;;;;;;;;;4908761;28;20432;-65
2022/12/22 06:11:27;;;;;;;;;;;;;;;;;;4905770;28;20049;-63
2022/12/22 06:13:52;;;;;;;;;;;;;;;;;;4923354;28;20442;-64
2022/12/22 06:16:20;;;;;;;;;;;;;;;;;;4920073;28;20424;-64
2022/12/22 06:18:45;;;;;;;;;;;;;;;;;;4907394;28;19977;-64
2022/12/22 06:21:11;;;;;;;;;;;;;;;;;;4923349;28;20018;-65
2022/12/22 06:23:38;;;;;;;;;;;;;;;;;;4923018;28;21704;-65
2022/12/22 06:26:06;;;;;;;;;;;;;;;;;;4923550;28;20389;-65
2022/12/22 06:28:32;;;;;;;;;;;;;;;;;;4922390;28;20502;-65
2022/12/22 06:30:58;;;;;;;;;;;;;;;;;;4923063;28;20148;-64
2022/12/22 06:33:23;;;;;;;;;;;;;;;;;;4971838;28;19923;-64
2022/12/22 06:35:49;;;;;;;;;;;;;;;;;;4989089;28;19930;-64
2022/12/22 06:38:16;;;;;;;;;;;;;;;;;;4922544;28;20646;-65
2022/12/22 06:40:42;;;;;;;;;;;;;;;;;;4908905;28;19926;-65
2022/12/22 06:43:07;;;;;;;;;;;;;;;;;;4924009;28;20290;-64
2022/12/22 06:45:32;;;;;;;;;;;;;;;;;;4913360;28;19922;-65
2022/12/22 06:47:57;;;;;;;;;;;;;;;;;;4989573;28;20146;-63
2022/12/22 06:50:25;;;;;;;;;;;;;;;;;;4971753;28;19923;-67
2022/12/22 06:52:50;;;;;;;;;;;;;;;;;;4909698;28;19949;-65
2022/12/22 06:55:20;;;;;;;;;;;;;;;;;;4909856;28;19976;-63
2022/12/22 06:57:46;;;;;;;;;;;;;;;;;;4923809;28;19952;-62
2022/12/22 07:00:11;;;;;;;;;;;;;;;;;;4920915;28;20132;-66
2022/12/22 07:02:39;;;;;;;;;;;;;;;;;;4921239;28;19918;-66
2022/12/22 07:05:06;;;;;;;;;;;;;;;;;;4923025;28;19918;-63
2022/12/22 07:07:34;;;;;;;;;;;;;;;;;;4922848;28;19926;-64
2022/12/22 07:09:59;;;;;;;;;;;;;;;;;;4911305;28;19927;-64
2022/12/22 07:12:27;;;;;;;;;;;;;;;;;;4920311;28;20272;-64
2022/12/22 07:14:52;;;;;;;;;;;;;;;;;;4924705;28;19926;-64
2022/12/22 07:17:18;;;;;;;;;;;;;;;;;;4918240;28;19923;-64
2022/12/22 07:19:44;;;;;;;;;;;;;;;;;;4922472;28;19949;-64
2022/12/22 07:22:11;;;;;;;;;;;;;;;;;;4927537;28;20406;-64
2022/12/22 07:24:39;;;;;;;;;;;;;;;;;;4992917;28;20063;-63
2022/12/22 07:27:04;;;;;;;;;;;;;;;;;;4918412;28;21091;-64
2022/12/22 07:29:35;;;;;;;;;;;;;;;;;;4913421;28;20194;-67
2022/12/22 07:32:00;;;;;;;;;;;;;;;;;;4912007;28;20083;-64
2022/12/22 07:34:26;;;;;;;;;;;;;;;;;;4925607;28;20028;-64
2022/12/22 07:36:54;;;;;;;;;;;;;;;;;;4925484;28;19980;-64
2022/12/22 07:39:19;;;;;;;;;;;;;;;;;;4926129;28;19926;-63
2022/12/22 07:44:31;;;;;;;;;;;;;;;;;;4924997;28;20031;-63
2022/12/22 07:46:57;;;;;;;;;;;;;;;;;;4923981;28;19923;-64
2022/12/22 07:52:06;;;;;;;;;;;;;;;;;;4924614;28;19918;-64
2022/12/22 07:54:34;;;;;;;;;;;;;;;;;;4900350;28;20495;-64
2022/12/22 07:57:02;;;;;;;;;;;;;;;;;;4990758;28;20286;-64
2022/12/22 07:59:29;;;;;;;;;;;;;;;;;;4989950;28;19919;-64
2022/12/22 08:01:55;;;;;;;;;;;;;;;;;;4974770;28;20036;-64
2022/12/22 08:04:21;;;;;;;;;;;;;;;;;;4992715;28;19918;-66
2022/12/22 08:06:49;;;;;;;;;;;;;;;;;;4983396;28;20361;-64
2022/12/22 08:09:14;;;;;;;;;;;;;;;;;;4926206;28;20027;-64
2022/12/22 08:11:42;;;;;;;;;;;;;;;;;;4992960;28;19918;-64
2022/12/22 08:14:09;;;;;;;;;;;;;;;;;;4924510;28;20044;-64
2022/12/22 08:16:37;;;;;;;;;;;;;;;;;;4926646;28;19971;-64
2022/12/22 08:19:05;;;;;;;;;;;;;;;;;;4901115;28;19929;-64
2022/12/22 08:21:30;;;;;;;;;;;;;;;;;;4975321;28;19923;-64
2022/12/22 08:23:55;;;;;;;;;;;;;;;;;;4924513;28;19922;-64
2022/12/22 08:26:21;;;;;;;;;;;;;;;;;;4979635;28;19918;-64
2022/12/22 08:28:46;;;;;;;;;;;;;;;;;;4924457;28;19957;-63
2022/12/22 08:31:14;;;;;;;;;;;;;;;;;;4990686;28;19945;-64
2022/12/22 08:33:39;;;;;;;;;;;;;;;;;;4914432;28;19926;-65
2022/12/22 08:36:05;;;;;;;;;;;;;;;;;;4990581;28;20649;-63
2022/12/22 08:38:30;;;;;;;;;;;;;;;;;;4975743;28;19918;-63
2022/12/22 08:40:58;;;;;;;;;;;;;;;;;;4926367;28;20398;-63
2022/12/22 08:43:28;;;;;;;;;;;;;;;;;;4988053;28;20017;-63
2022/12/22 08:45:56;;;;;;;;;;;;;;;;;;4924956;28;19922;-62
2022/12/22 08:48:24;;;;;;;;;;;;;;;;;;4924051;28;19975;-63
2022/12/22 08:50:49;;;;;;;;;;;;;;;;;;4924897;28;19976;-64
2022/12/22 08:53:14;;;;;;;;;;;;;;;;;;4992178;28;20565;-65
2022/12/22 08:55:42;;;;;;;;;;;;;;;;;;4988589;28;19927;-65
2022/12/22 08:58:10;;;;;;;;;;;;;;;;;;4913464;28;19938;-62
2022/12/22 09:00:37;;;;;;;;;;;;;;;;;;4922369;28;20174;-63
2022/12/22 09:03:03;;;;;;;;;;;;;;;;;;4974974;28;19936;-65
2022/12/22 09:05:28;;;;;;;;;;;;;;;;;;4925077;28;19929;-63
2022/12/22 09:07:54;;;;;;;;;;;;;;;;;;4925171;28;19926;-64
2022/12/22 09:10:19;;;;;;;;;;;;;;;;;;4980041;28;20007;-64
2022/12/22 09:12:50;;;;;;;;;;;;;;;;;;4925257;28;19923;-63
2022/12/22 09:15:20;;;;;;;;;;;;;;;;;;4989037;28;19937;-63
2022/12/22 09:17:48;;;;;;;;;;;;;;;;;;4990450;28;19918;-63
2022/12/22 09:20:13;;;;;;;;;;;;;;;;;;4977377;28;19922;-63
2022/12/22 09:22:39;;;;;;;;;;;;;;;;;;4925079;28;20495;-64
2022/12/22 09:25:05;;;;;;;;;;;;;;;;;;4924639;28;20388;-64
2022/12/22 09:27:30;;;;;;;;;;;;;;;;;;4989991;28;19919;-63
2022/12/22 09:29:58;;;;;;;;;;;;;;;;;;4988809;28;19933;-63
2022/12/22 09:32:23;;;;;;;;;;;;;;;;;;4923736;28;20380;-67
2022/12/22 09:34:48;;;;;;;;;;;;;;;;;;4925459;28;20541;-63
2022/12/22 09:37:14;;;;;;;;;;;;;;;;;;4973293;28;19941;-66
2022/12/22 09:39:40;;;;;;;;;;;;;;;;;;4925433;28;20392;-67
2022/12/22 09:42:07;;;;;;;;;;;;;;;;;;4922640;28;19922;-63
2022/12/22 09:44:37;;;;;;;;;;;;;;;;;;4912285;28;20596;-64
2022/12/22 09:47:05;;;;;;;;;;;;;;;;;;4918450;28;19954;-63
2022/12/22 09:49:30;;;;;;;;;;;;;;;;;;4973928;28;20523;-63
2022/12/22 09:51:58;;;;;;;;;;;;;;;;;;4925047;28;19922;-63
2022/12/22 09:54:26;;;;;;;;;;;;;;;;;;4923641;28;20634;-63
2022/12/22 09:56:51;;;;;;;;;;;;;;;;;;4923980;28;19930;-63
2022/12/22 09:59:19;;;;;;;;;;;;;;;;;;4900453;28;19999;-63
2022/12/22 10:01:45;;;;;;;;;;;;;;;;;;4923355;28;19929;-63
2022/12/22 10:04:10;;;;;;;;;;;;;;;;;;4907537;28;19922;-63
2022/12/22 10:06:36;;;;;;;;;;;;;;;;;;4904625;28;19922;-63
2022/12/22 10:09:06;;;;;;;;;;;;;;;;;;4908709;28;20429;-63
2022/12/22 10:11:34;;;;;;;;;;;;;;;;;;4923448;28;19968;-63
2022/12/22 10:13:59;;;;;;;;;;;;;;;;;;4923837;28;19930;-63
2022/12/22 10:16:25;;;;;;;;;;;;;;;;;;4922728;28;19930;-62
2022/12/22 10:18:53;;;;;;;;;;;;;;;;;;4990512;28;19992;-63
2022/12/22 10:21:20;;;;;;;;;;;;;;;;;;4906645;28;19918;-62
2022/12/22 10:23:46;;;;;;;;;;;;;;;;;;4900914;28;19973;-62
2022/12/22 10:26:14;;;;;;;;;;;;;;;;;;4921303;28;20019;-62
2022/12/22 10:28:41;;;;;;;;;;;;;;;;;;4923394;28;19926;-62
2022/12/22 10:31:07;;;;;;;;;;;;;;;;;;4978471;28;20393;-62
2022/12/22 10:33:32;;;;;;;;;;;;;;;;;;4987745;28;19918;-63
2022/12/22 10:36:00;;;;;;;;;;;;;;;;;;4915574;28;19978;-61
2022/12/22 10:38:25;;;;;;;;;;;;;;;;;;4990497;28;19922;-62
2022/12/22 10:40:53;;;;;;;;;;;;;;;;;;4986884;28;19935;-61
2022/12/22 10:43:21;;;;;;;;;;;;;;;;;;4909809;28;19929;-60
2022/12/22 10:45:46;;;;;;;;;;;;;;;;;;4924846;28;19919;-63
2022/12/22 10:48:14;;;;;;;;;;;;;;;;;;4926807;28;19936;-63
2022/12/22 10:50:44;;;;;;;;;;;;;;;;;;4925300;28;19919;-64
2022/12/22 10:53:12;;;;;;;;;;;;;;;;;;4978962;28;19933;-62
2022/12/22 10:55:38;;;;;;;;;;;;;;;;;;4925241;28;20007;-62
2022/12/22 10:58:03;;;;;;;;;;;;;;;;;;4993229;28;19922;-63
2022/12/22 11:00:31;;;;;;;;;;;;;;;;;;4981412;28;19938;-64
2022/12/22 11:02:56;;;;;;;;;;;;;;;;;;4925702;28;20345;-62
2022/12/22 11:05:22;;;;;;;;;;;;;;;;;;4925106;28;20723;-62
2022/12/22 11:07:49;;;;;;;;;;;;;;;;;;4926002;28;19965;-63
2022/12/22 11:10:17;;;;;;;;;;;;;;;;;;4978925;28;19930;-62
2022/12/22 11:12:42;;;;;;;;;;;;;;;;;;4910982;28;19923;-62
2022/12/22 11:15:08;;;;;;;;;;;;;;;;;;4920725;28;19926;-62
2022/12/22 11:17:33;;;;;;;;;;;;;;;;;;4925337;28;19922;-63
2022/12/22 11:20:06;;;;;;;;;;;;;;;;;;4924903;28;19926;-65
2022/12/22 11:22:31;;;;;;;;;;;;;;;;;;4992794;28;19979;-64
2022/12/22 11:24:59;;;;;;;;;;;;;;;;;;4991191;28;19969;-64
2022/12/22 11:27:24;;;;;;;;;;;;;;;;;;4992425;28;20444;-63
2022/12/22 11:29:52;;;;;;;;;;;;;;;;;;4910744;28;20142;-65
2022/12/22 11:32:17;;;;;;;;;;;;;;;;;;4925591;28;20548;-63
2022/12/22 11:34:43;;;;;;;;;;;;;;;;;;4927514;28;19922;-62
2022/12/22 11:37:08;;;;;;;;;;;;;;;;;;4926058;28;19945;-63
2022/12/22 11:39:34;;;;;;;;;;;;;;;;;;4926323;28;19970;-62
2022/12/22 11:42:00;;;;;;;;;;;;;;;;;;4991418;28;20289;-63
2022/12/22 11:44:28;;;;;;;;;;;;;;;;;;4910159;28;19926;-64
2022/12/22 11:46:53;;;;;;;;;;;;;;;;;;4926264;28;20039;-65
2022/12/22 11:49:19;;;;;;;;;;;;;;;;;;4990880;28;20592;-67
2022/12/22 11:51:44;;;;;;;;;;;;;;;;;;4916878;28;19922;-64
2022/12/22 11:54:14;;;;;;;;;;;;;;;;;;4925444;28;19929;-64
2022/12/22 11:56:42;;;;;;;;;;;;;;;;;;4988527;28;21458;-65
2022/12/22 11:59:07;;;;;;;;;;;;;;;;;;4902551;28;20301;-65
2022/12/22 12:01:35;;;;;;;;;;;;;;;;;;4990601;28;19953;-65
2022/12/22 12:04:00;;;;;;;;;;;;;;;;;;4978422;28;21146;-66
2022/12/22 12:06:26;;;;;;;;;;;;;;;;;;4926210;28;20298;-68
2022/12/22 12:08:51;;;;;;;;;;;;;;;;;;4912702;28;20654;-68
2022/12/22 12:11:17;;;;;;;;;;;;;;;;;;4924333;28;19929;-66
2022/12/22 12:13:42;;;;;;;;;;;;;;;;;;4912250;28;19945;-68
2022/12/22 12:16:10;;;;;;;;;;;;;;;;;;4925453;28;20290;-66
2022/12/22 12:18:37;;;;;;;;;;;;;;;;;;4923344;28;19929;-69
2022/12/22 12:21:05;;;;;;;;;;;;;;;;;;4977996;28;20441;-69
2022/12/22 12:23:30;;;;;;;;;;;;;;;;;;4924631;28;20074;-68
2022/12/22 12:25:55;;;;;;;;;;;;;;;;;;4925619;28;20141;-68
2022/12/22 12:28:21;;;;;;;;;;;;;;;;;;4909288;28;20094;-66
2022/12/22 12:30:51;;;;;;;;;;;;;;;;;;4989272;28;19923;-68
2022/12/22 12:33:19;;;;;;;;;;;;;;;;;;4991807;28;21450;-68
2022/12/22 12:35:48;;;;;;;;;;;;;;;;;;4925834;28;19931;-68
2022/12/22 12:38:14;;;;;;;;;;;;;;;;;;4992819;28;19922;-68
2022/12/22 12:40:42;;;;;;;;;;;;;;;;;;4924974;28;20400;-68
2022/12/22 12:43:09;;;;;;;;;;;;;;;;;;4992859;28;19923;-68
2022/12/22 12:45:40;;;;;;;;;;;;;;;;;;4973767;28;20309;-70
2022/12/22 12:48:05;;;;;;;;;;;;;;;;;;4991845;28;19945;-66
2022/12/22 12:50:30;;;;;;;;;;;;;;;;;;4899740;28;20103;-69
2022/12/22 12:52:58;;;;;;;;;;;;;;;;;;4924346;28;19968;-69
2022/12/22 12:55:23;;;;;;;;;;;;;;;;;;4925642;28;19985;-69
2022/12/22 12:57:48;;;;;;;;;;;;;;;;;;4924127;28;20549;-69
2022/12/22 13:00:14;;;;;;;;;;;;;;;;;;4924365;28;19934;-70
2022/12/22 13:02:39;;;;;;;;;;;;;;;;;;4924489;28;19973;-70
2022/12/22 13:05:07;;;;;;;;;;;;;;;;;;4922984;28;20887;-70
2022/12/22 13:07:35;;;;;;;;;;;;;;;;;;4919410;28;20003;-68
2022/12/22 13:10:00;;;;;;;;;;;;;;;;;;4974524;28;20461;-71
2022/12/22 13:12:25;;;;;;;;;;;;;;;;;;4925152;28;19946;-68
2022/12/22 13:14:53;;;;;;;;;;;;;;;;;;4925372;28;19961;-68
2022/12/22 13:17:19;;;;;;;;;;;;;;;;;;4989300;28;20391;-68
2022/12/22 13:19:47;;;;;;;;;;;;;;;;;;4925338;28;19923;-71
2022/12/22 13:22:14;;;;;;;;;;;;;;;;;;4989612;28;19918;-69
2022/12/22 13:24:40;;;;;;;;;;;;;;;;;;4993177;28;19929;-68
2022/12/22 13:27:05;;;;;;;;;;;;;;;;;;4921584;28;20323;-68
2022/12/22 13:29:33;;;;;;;;;;;;;;;;;;4907378;28;19937;-69
2022/12/22 13:32:00;;;;;;;;;;;;;;;;;;4962863;28;19922;-70
2022/12/22 13:34:28;;;;;;;;;;;;;;;;;;4915332;28;20133;-69
2022/12/22 13:36:53;;;;;;;;;;;;;;;;;;4979263;28;20393;-70
2022/12/22 13:39:19;;;;;;;;;;;;;;;;;;4914849;28;19922;-70
2022/12/22 13:41:47;;;;;;;;;;;;;;;;;;4978756;28;19958;-70
2022/12/22 13:44:15;;;;;;;;;;;;;;;;;;4982416;28;20992;-69
2022/12/22 13:46:42;;;;;;;;;;;;;;;;;;4979572;28;20633;-69
2022/12/22 13:49:11;;;;;;;;;;;;;;;;;;4914694;28;19923;-70
2022/12/22 13:51:36;;;;;;;;;;;;;;;;;;4977322;28;19929;-72
2022/12/22 13:54:02;;;;;;;;;;;;;;;;;;4978901;28;19918;-72
2022/12/22 13:56:29;;;;;;;;;;;;;;;;;;4913859;28;19980;-70
2022/12/22 13:59:00;;;;;;;;;;;;;;;;;;4911969;28;19977;-71
2022/12/22 14:01:25;;;;;;;;;;;;;;;;;;4979016;28;19929;-70
2022/12/22 14:03:56;;;;;;;;;;;;;;;;;;4965500;28;20355;-71
2022/12/22 14:06:23;;;;;;;;;;;;;;;;;;4914243;28;20316;-70
2022/12/22 14:08:48;;;;;;;;;;;;;;;;;;4981003;28;19923;-70
2022/12/22 14:11:16;;;;;;;;;;;;;;;;;;4977474;28;19925;-69
2022/12/22 14:13:41;;;;;;;;;;;;;;;;;;4912273;28;19922;-70
2022/12/22 14:16:09;;;;;;;;;;;;;;;;;;4978177;28;19953;-70
2022/12/22 14:18:35;;;;;;;;;;;;;;;;;;4908544;28;19993;-69
2022/12/22 14:21:01;;;;;;;;;;;;;;;;;;4980677;28;20007;-69
2022/12/22 14:23:26;;;;;;;;;;;;;;;;;;4897018;28;19926;-66
2022/12/22 14:25:54;;;;;;;;;;;;;;;;;;4913942;28;20184;-72
2022/12/22 14:28:19;;;;;;;;;;;;;;;;;;4913866;28;19918;-69
2022/12/22 14:30:49;;;;;;;;;;;;;;;;;;4968937;28;20372;-69
2022/12/22 14:33:15;;;;;;;;;;;;;;;;;;4922484;28;19922;-70
2022/12/22 14:35:41;;;;;;;;;;;;;;;;;;4905688;28;19946;-71
2022/12/22 14:38:09;;;;;;;;;;;;;;;;;;4974157;28;19922;-70
2022/12/22 14:40:34;;;;;;;;;;;;;;;;;;4910777;28;19957;-72
2022/12/22 14:43:00;;;;;;;;;;;;;;;;;;4909167;28;19930;-71
2022/12/22 14:45:25;;;;;;;;;;;;;;;;;;4922266;28;19949;-73
2022/12/22 14:47:51;;;;;;;;;;;;;;;;;;4921602;28;20417;-72
2022/12/22 14:50:19;;;;;;;;;;;;;;;;;;4987892;28;20021;-70
2022/12/22 14:52:45;;;;;;;;;;;;;;;;;;4920641;28;20269;-71
2022/12/22 14:55:12;;;;;;;;;;;;;;;;;;4906796;28;20305;-71
2022/12/22 14:57:38;;;;;;;;;;;;;;;;;;4915838;28;19926;-66
2022/12/22 15:00:05;;;;;;;;;;;;;;;;;;4908389;28;20438;-70
2022/12/22 15:02:31;;;;;;;;;;;;;;;;;;4920664;28;20029;-72
2022/12/22 15:04:57;;;;;;;;;;;;;;;;;;4988853;28;19927;-70
2022/12/22 15:07:22;;;;;;;;;;;;;;;;;;4911398;28;20289;-68
2022/12/22 15:09:47;;;;;;;;;;;;;;;;;;4990437;28;19914;-70
2022/12/22 15:12:13;;;;;;;;;;;;;;;;;;4967108;28;20518;-68
2022/12/22 15:14:40;;;;;;;;;;;;;;;;;;4916164;28;20487;-70
2022/12/22 15:17:07;;;;;;;;;;;;;;;;;;4965932;28;19933;-68
2022/12/22 15:19:32;;;;;;;;;;;;;;;;;;4903142;28;20330;-68
2022/12/22 15:21:58;;;;;;;;;;;;;;;;;;4969156;28;19929;-68
2022/12/22 15:24:26;;;;;;;;;;;;;;;;;;4905102;28;19927;-68
2022/12/22 15:36:18;;;;;;;;;;;;;;;;;;4920279;28;19931;-70
2022/12/22 15:38:43;;;;;;;;;;;;;;;;;;4922201;28;20634;-69
2022/12/22 15:41:10;;;;;;;;;;;;;;;;;;4901865;28;19943;-69
2022/12/22 15:43:35;;;;;;;;;;;;;;;;;;4923838;28;20504;-69
2022/12/22 15:46:01;;;;;;;;;;;;;;;;;;4989232;28;19968;-69
2022/12/22 15:48:26;;;;;;;;;;;;;;;;;;4919919;28;19955;-70
2022/12/22 15:50:51;;;;;;;;;;;;;;;;;;4968004;28;20377;-69
2022/12/22 15:53:22;;;;;;;;;;;;;;;;;;4984205;28;20017;-70
2022/12/22 15:55:47;;;;;;;;;;;;;;;;;;4906814;28;20348;-70
2022/12/22 15:58:12;;;;;;;;;;;;;;;;;;4911030;28;19927;-69
2022/12/22 16:00:37;;;;;;;;;;;;;;;;;;4974420;28;20833;-70
2022/12/22 16:03:03;;;;;;;;;;;;;;;;;;4919850;28;20452;-69
2022/12/22 16:05:28;;;;;;;;;;;;;;;;;;4988881;28;20019;-69
2022/12/22 16:07:54;;;;;;;;;;;;;;;;;;4923483;28;19973;-69
2022/12/22 16:10:19;;;;;;;;;;;;;;;;;;4920945;28;19958;-69
2022/12/22 16:12:52;;;;;;;;;;;;;;;;;;4923090;28;20305;-69
2022/12/22 16:15:17;;;;;;;;;;;;;;;;;;4987220;28;20028;-69
2022/12/22 16:17:43;;;;;;;;;;;;;;;;;;4896282;28;20408;-69
2022/12/22 16:20:11;;;;;;;;;;;;;;;;;;4921838;28;20013;-73
2022/12/22 16:22:41;;;;;;;;;;;;;;;;;;4974242;28;20048;-71
2022/12/22 16:25:09;;;;;;;;;;;;;;;;;;4905284;28;20671;-70
2022/12/22 16:27:35;;;;;;;;;;;;;;;;;;4921888;28;20437;-70
2022/12/22 16:30:00;;;;;;;;;;;;;;;;;;4967198;28;19933;-69
2022/12/22 16:32:25;;;;;;;;;;;;;;;;;;4969626;28;19923;-69
2022/12/22 16:34:50;;;;;;;;;;;;;;;;;;4908626;28;20016;-70
2022/12/22 16:37:16;;;;;;;;;;;;;;;;;;4921950;28;19934;-70
2022/12/22 16:39:44;;;;;;;;;;;;;;;;;;4987611;28;19984;-70
2022/12/22 16:42:09;;;;;;;;;;;;;;;;;;4919948;28;20339;-69
2022/12/22 16:44:37;;;;;;;;;;;;;;;;;;4922260;28;20425;-69
2022/12/22 16:47:04;;;;;;;;;;;;;;;;;;4920176;28;19918;-69
2022/12/22 16:49:32;;;;;;;;;;;;;;;;;;4906280;28;20009;-69
2022/12/22 16:55:14;;;;;;;;;;;;;;;;;;4911760;28;19967;-68
2022/12/22 16:57:41;;;;;;;;;;;;;;;;;;4980477;28;20366;-69
2022/12/22 17:00:08;;;;;;;;;;;;;;;;;;4903318;28;19923;-70
2022/12/22 17:02:39;;;;;;;;;;;;;;;;;;4967000;28;19923;-69
2022/12/22 17:05:06;;;;;;;;;;;;;;;;;;4987459;28;20086;-69
2022/12/22 17:07:34;;;;;;;;;;;;;;;;;;4915971;28;19926;-69
2022/12/22 17:10:03;;;;;;;;;;;;;;;;;;4919049;28;20389;-72
2022/12/22 17:12:29;;;;;;;;;;;;;;;;;;4986374;28;20015;-69
2022/12/22 17:14:54;;;;;;;;;;;;;;;;;;4922149;28;20059;-68
2022/12/22 17:17:21;;;;;;;;;;;;;;;;;;4918917;28;20305;-70
2022/12/22 17:19:52;;;;;;;;;;;;;;;;;;4983784;28;19922;-69
2022/12/22 17:22:38;;;;;;;;;;;;;;;;;;4919846;28;19926;-67
2022/12/22 17:25:07;;;;;;;;;;;;;;;;;;4904260;28;19969;-69
2022/12/22 17:27:35;;;;;;;;;;;;;;;;;;4986541;28;20457;-70
2022/12/22 17:30:02;;;;;;;;;;;;;;;;;;4922803;28;20001;-71
2022/12/22 17:32:32;;;;;;;;;;;;;;;;;;4969974;28;19962;-70
2022/12/22 17:34:59;;;;;;;;;;;;;;;;;;4922153;28;20048;-69
2022/12/22 17:37:25;;;;;;;;;;;;;;;;;;4988462;28;20016;-69
2022/12/22 17:39:51;;;;;;;;;;;;;;;;;;4975080;28;20736;-70
2022/12/22 17:42:18;;;;;;;;;;;;;;;;;;4918822;28;20312;-70
2022/12/22 17:44:44;;;;;;;;;;;;;;;;;;4986582;28;20142;-69
2022/12/22 17:47:10;;;;;;;;;;;;;;;;;;4913593;28;19925;-69
2022/12/22 17:49:41;;;;;;;;;;;;;;;;;;4958702;28;21522;-69
2022/12/22 17:52:09;;;;;;;;;;;;;;;;;;4914330;28;19922;-68
2022/12/22 17:54:38;;;;;;;;;;;;;;;;;;4974802;28;20315;-70
2022/12/22 17:57:03;;;;;;;;;;;;;;;;;;4912144;28;19932;-69
2022/12/22 17:59:28;;;;;;;;;;;;;;;;;;4968518;28;19918;-68
2022/12/22 18:01:54;;;;;;;;;;;;;;;;;;4977342;28;19938;-69
2022/12/22 18:04:20;;;;;;;;;;;;;;;;;;4915674;28;19929;-68
2022/12/22 18:06:48;;;;;;;;;;;;;;;;;;4920237;28;22186;-68
2022/12/22 18:09:13;;;;;;;;;;;;;;;;;;4968690;28;19972;-69
2022/12/22 18:11:39;;;;;;;;;;;;;;;;;;4901363;28;20101;-69
2022/12/22 18:14:04;;;;;;;;;;;;;;;;;;4986091;28;19960;-69
2022/12/22 18:16:32;;;;;;;;;;;;;;;;;;4903850;28;20459;-68
2022/12/22 18:18:57;;;;;;;;;;;;;;;;;;4987028;28;19926;-69
2022/12/22 18:21:23;;;;;;;;;;;;;;;;;;4918171;28;20021;-70
2022/12/22 18:23:51;;;;;;;;;;;;;;;;;;4912025;28;20393;-68
2022/12/22 18:26:19;;;;;;;;;;;;;;;;;;4913024;28;19932;-70
2022/12/22 18:28:44;;;;;;;;;;;;;;;;;;4968260;28;19931;-69
2022/12/22 18:31:12;;;;;;;;;;;;;;;;;;4918760;28;19930;-69
2022/12/22 18:33:37;;;;;;;;;;;;;;;;;;4920049;28;19922;-69
2022/12/22 18:36:03;;;;;;;;;;;;;;;;;;4920345;28;21788;-67
2022/12/22 18:38:28;;;;;;;;;;;;;;;;;;4922317;28;19985;-70
2022/12/22 18:40:54;;;;;;;;;;;;;;;;;;4917464;28;20237;-68
2022/12/22 18:43:20;;;;;;;;;;;;;;;;;;4921916;28;20280;-68
2022/12/22 18:45:45;;;;;;;;;;;;;;;;;;4934013;28;19928;-68
2022/12/22 18:48:11;;;;;;;;;;;;;;;;;;4903097;28;19926;-68
2022/12/22 18:50:37;;;;;;;;;;;;;;;;;;4919778;28;20655;-69
2022/12/22 18:53:03;;;;;;;;;;;;;;;;;;4902457;28;19923;-69
2022/12/22 18:55:30;;;;;;;;;;;;;;;;;;4914136;28;20700;-69
2022/12/22 18:57:56;;;;;;;;;;;;;;;;;;4901301;28;20207;-69
2022/12/22 19:00:21;;;;;;;;;;;;;;;;;;4915110;28;19969;-69
2022/12/22 19:02:46;;;;;;;;;;;;;;;;;;4920130;28;19926;-69
2022/12/22 19:05:12;;;;;;;;;;;;;;;;;;4923568;28;19974;-68
2022/12/22 19:07:37;;;;;;;;;;;;;;;;;;4918540;28;20392;-68
2022/12/22 19:10:05;;;;;;;;;;;;;;;;;;4920043;28;20285;-69
2022/12/22 19:12:35;;;;;;;;;;;;;;;;;;4922828;28;19926;-68
2022/12/22 19:15:01;;;;;;;;;;;;;;;;;;4909725;28;20073;-68
2022/12/22 19:17:28;;;;;;;;;;;;;;;;;;4924760;28;20037;-69
2022/12/22 19:19:54;;;;;;;;;;;;;;;;;;4924529;28;19933;-69
2022/12/22 19:22:19;;;;;;;;;;;;;;;;;;4925216;28;20678;-69
2022/12/22 19:24:50;;;;;;;;;;;;;;;;;;4924075;28;21644;-69
2022/12/22 19:27:15;;;;;;;;;;;;;;;;;;4926666;28;20056;-68
2022/12/22 19:29:44;;;;;;;;;;;;;;;;;;4918804;28;19966;-68
2022/12/22 19:32:09;;;;;;;;;;;;;;;;;;4900475;28;20022;-69
2022/12/22 19:34:39;;;;;;;;;;;;;;;;;;4919358;28;20388;-68
2022/12/22 19:37:07;;;;;;;;;;;;;;;;;;4964788;28;20194;-69
2022/12/22 19:39:32;;;;;;;;;;;;;;;;;;4984001;28;19938;-68
2022/12/22 19:41:59;;;;;;;;;;;;;;;;;;4896970;28;20639;-68
2022/12/22 19:44:27;;;;;;;;;;;;;;;;;;4909154;28;19998;-67
2022/12/22 19:46:52;;;;;;;;;;;;;;;;;;4986271;28;19933;-68
2022/12/22 19:49:18;;;;;;;;;;;;;;;;;;4902769;28;19923;-67
2022/12/22 19:51:45;;;;;;;;;;;;;;;;;;4913022;28;19923;-69
2022/12/22 19:54:11;;;;;;;;;;;;;;;;;;4904459;28;19932;-68
2022/12/22 19:56:36;;;;;;;;;;;;;;;;;;4906993;28;19931;-67
2022/12/22 19:59:04;;;;;;;;;;;;;;;;;;4911881;28;20412;-67
2022/12/22 20:01:31;;;;;;;;;;;;;;;;;;4902255;28;19923;-68
2022/12/22 20:03:56;;;;;;;;;;;;;;;;;;4900558;28;20052;-69
2022/12/22 20:06:24;;;;;;;;;;;;;;;;;;4899006;28;19975;-68
2022/12/22 20:08:50;;;;;;;;;;;;;;;;;;4902492;28;19922;-68
2022/12/22 20:11:15;;;;;;;;;;;;;;;;;;4902892;28;20431;-68
2022/12/22 20:13:43;;;;;;;;;;;;;;;;;;4904111;28;19920;-69
2022/12/22 20:16:09;;;;;;;;;;;;;;;;;;4901049;28;19923;-68
2022/12/22 20:18:34;;;;;;;;;;;;;;;;;;4901262;28;19934;-67
2022/12/22 20:21:02;;;;;;;;;;;;;;;;;;4898176;28;19919;-68
2022/12/22 20:23:27;;;;;;;;;;;;;;;;;;4967702;28;20250;-68
2022/12/22 20:25:53;;;;;;;;;;;;;;;;;;4901178;28;19923;-68
2022/12/22 20:28:18;;;;;;;;;;;;;;;;;;4887598;28;19922;-68
2022/12/22 20:30:46;;;;;;;;;;;;;;;;;;4989996;28;19930;-67
2022/12/22 20:33:13;;;;;;;;;;;;;;;;;;4921915;28;19976;-68
2022/12/22 20:35:41;;;;;;;;;;;;;;;;;;4986671;28;19930;-67
2022/12/22 20:38:08;;;;;;;;;;;;;;;;;;4908002;28;20049;-69
2022/12/22 20:40:33;;;;;;;;;;;;;;;;;;4918727;28;19922;-69
2022/12/22 20:43:01;;;;;;;;;;;;;;;;;;4984716;28;19919;-69